createdAt,value
2018-11-01T00:02:18.086Z,94525.66
2018-11-01T00:04:46.012Z,94535.47
2018-11-01T00:07:13.921Z,94538.24
2018-11-01T00:09:42.005Z,94543.00
2018-11-01T00:12:10.131Z,94554.78
2018-11-01T00:14:38.089Z,94546.22
2018-11-01T00:17:06.678Z,94540.50
2018-11-01T00:19:34.642Z,94542.02
2018-11-01T00:22:02.547Z,94541.16
2018-11-01T00:24:30.465Z,94546.23
2018-11-01T00:26:58.418Z,94543.44
2018-11-01T00:29:26.551Z,94548.85
2018-11-01T00:31:54.494Z,94544.45
2018-11-01T00:34:22.448Z,94541.99
2018-11-01T00:36:50.412Z,94546.58
2018-11-01T00:39:18.382Z,94552.42
2018-11-01T00:41:46.412Z,94541.22
2018-11-01T00:44:14.409Z,94539.31
2018-11-01T00:46:42.385Z,94535.53
2018-11-01T00:49:10.415Z,94532.88
2018-11-01T00:51:38.335Z,94530.34
2018-11-01T00:54:06.329Z,94534.91
2018-11-01T00:56:34.395Z,94540.87
2018-11-01T00:59:02.326Z,94539.36
2018-11-01T01:01:30.370Z,94535.36
2018-11-01T01:03:58.393Z,94534.53
2018-11-01T01:06:26.389Z,94538.61
2018-11-01T01:08:54.396Z,94538.77
2018-11-01T01:11:22.426Z,94539.66
2018-11-01T01:13:50.378Z,94542.87
2018-11-01T01:16:18.440Z,94539.06
2018-11-01T01:18:46.436Z,94528.97
2018-11-01T01:21:14.399Z,94533.18
2018-11-01T01:23:42.319Z,94532.08
2018-11-01T01:26:10.269Z,94531.86
2018-11-01T01:28:38.274Z,94527.25
2018-11-01T01:31:06.241Z,94524.57
2018-11-01T01:33:34.284Z,94525.27
2018-11-01T01:36:02.341Z,94530.39
2018-11-01T01:38:30.341Z,94518.47
2018-11-01T01:40:58.276Z,94517.98
2018-11-01T01:43:26.205Z,94515.66
2018-11-01T01:45:54.116Z,94508.91
2018-11-01T01:48:22.058Z,94516.64
2018-11-01T01:50:50.045Z,94517.30
2018-11-01T01:53:18.008Z,94525.66
2018-11-01T01:55:45.994Z,94526.23
2018-11-01T01:58:13.952Z,94525.56
2018-11-01T02:00:41.961Z,94516.75
2018-11-01T02:03:09.960Z,94517.78
2018-11-01T02:05:37.887Z,94517.98
2018-11-01T02:08:05.937Z,94516.70
2018-11-01T02:10:33.960Z,94523.64
2018-11-01T02:13:01.891Z,94517.70
2018-11-01T02:15:29.986Z,94518.22
2018-11-01T02:17:58.044Z,94510.00
2018-11-01T02:20:26.023Z,94504.42
2018-11-01T02:22:53.954Z,94508.05
2018-11-01T02:25:22.062Z,94507.73
2018-11-01T02:27:55.605Z,94513.47
2018-11-01T02:30:23.520Z,94510.52
2018-11-01T02:32:51.771Z,94512.37
2018-11-01T02:35:19.973Z,94519.48
2018-11-01T02:37:48.057Z,94516.70
2018-11-01T02:40:16.430Z,94515.80
2018-11-01T02:42:44.479Z,94517.73
2018-11-01T02:45:13.488Z,94513.98
2018-11-01T02:47:41.447Z,94517.41
2018-11-01T02:50:10.488Z,94514.38
2018-11-01T02:52:38.909Z,94502.97
2018-11-01T02:55:07.247Z,94509.70
2018-11-01T02:57:35.212Z,94498.75
2018-11-01T03:00:03.283Z,94492.25
2018-11-01T03:02:31.321Z,94497.12
2018-11-01T03:04:59.238Z,94511.66
2018-11-01T03:07:27.213Z,94514.50
2018-11-01T03:09:55.441Z,94519.91
2018-11-01T03:12:23.465Z,94532.16
2018-11-01T03:14:51.440Z,94535.20
2018-11-01T03:17:19.645Z,94525.11
2018-11-01T03:19:47.650Z,94517.95
2018-11-01T03:22:15.637Z,94521.31
2018-11-01T03:24:43.788Z,94519.41
2018-11-01T03:27:11.732Z,94512.05
2018-11-01T03:29:39.762Z,94501.52
2018-11-01T03:32:07.734Z,94497.53
2018-11-01T03:34:35.665Z,94507.48
2018-11-01T03:37:03.624Z,94507.48
2018-11-01T03:39:31.676Z,94519.77
2018-11-01T03:41:59.761Z,94523.38
2018-11-01T03:44:27.745Z,94521.41
2018-11-01T03:46:55.754Z,94528.59
2018-11-01T03:49:23.801Z,94516.53
2018-11-01T03:51:51.814Z,94511.75
2018-11-01T03:54:19.778Z,94505.60
2018-11-01T03:56:47.844Z,94509.75
2018-11-01T03:59:15.774Z,94507.11
2018-11-01T04:01:43.904Z,94519.96
2018-11-01T04:04:12.072Z,94512.40
2018-11-01T04:06:40.042Z,94521.79
2018-11-01T04:09:10.343Z,94519.36
2018-11-01T04:11:38.633Z,94518.89
2018-11-01T04:14:06.646Z,94508.83
2018-11-01T04:16:34.835Z,94502.45
2018-11-01T04:19:02.891Z,94505.77
2018-11-01T04:21:30.981Z,94507.32
2018-11-01T04:23:59.246Z,94516.55
2018-11-01T04:26:27.875Z,94516.02
2018-11-01T04:28:56.023Z,94514.84
2018-11-01T04:31:24.069Z,94520.48
2018-11-01T04:33:52.327Z,94520.29
2018-11-01T04:36:20.597Z,94514.62
2018-11-01T04:38:48.712Z,94508.51
2018-11-01T04:41:16.702Z,94513.32
2018-11-01T04:43:44.638Z,94519.91
2018-11-01T04:46:12.665Z,94512.97
2018-11-01T04:48:40.592Z,94525.82
2018-11-01T04:51:08.578Z,94513.86
2018-11-01T04:53:36.621Z,94520.70
2018-11-01T04:56:05.073Z,94527.75
2018-11-01T04:58:33.030Z,94530.50
2018-11-01T05:01:01.082Z,94535.73
2018-11-01T05:03:29.465Z,94537.50
2018-11-01T05:05:57.648Z,94539.62
2018-11-01T05:08:25.749Z,94538.06
2018-11-01T05:10:53.724Z,94538.84
2018-11-01T05:13:21.744Z,94543.30
2018-11-01T05:15:49.817Z,94543.14
2018-11-01T05:18:17.889Z,94537.84
2018-11-01T05:20:46.058Z,94540.39
2018-11-01T05:23:14.274Z,94539.98
2018-11-01T05:25:42.402Z,94545.45
2018-11-01T05:28:10.670Z,94552.45
2018-11-01T05:30:38.691Z,94553.34
2018-11-01T05:33:06.849Z,94564.33
2018-11-01T05:35:34.981Z,94564.33
2018-11-01T05:38:03.094Z,94568.48
2018-11-01T05:40:31.240Z,94568.36
2018-11-01T05:42:59.388Z,94564.25
2018-11-01T05:45:27.710Z,94564.59
2018-11-01T05:47:55.809Z,94566.27
2018-11-01T05:50:23.890Z,94569.97
2018-11-01T05:52:51.970Z,94579.83
2018-11-01T05:55:20.359Z,94578.68
2018-11-01T05:57:48.512Z,94576.20
2018-11-01T06:00:16.658Z,94580.09
2018-11-01T06:02:48.770Z,94591.77
2018-11-01T06:05:17.063Z,94595.15
2018-11-01T06:07:55.346Z,94599.36
2018-11-01T06:10:23.750Z,94599.95
2018-11-01T06:12:52.169Z,94592.15
2018-11-01T06:15:20.534Z,94591.25
2018-11-01T06:17:48.828Z,94589.78
2018-11-01T06:20:18.113Z,94587.22
2018-11-01T06:22:46.430Z,94590.06
2018-11-01T06:25:14.762Z,94598.31
2018-11-01T06:27:44.178Z,94597.34
2018-11-01T06:30:15.329Z,94600.19
2018-11-01T06:32:44.592Z,94597.74
2018-11-01T06:35:21.771Z,94601.27
2018-11-01T06:37:50.385Z,94601.84
2018-11-01T06:40:18.816Z,94603.91
2018-11-01T06:42:47.815Z,94605.14
2018-11-01T06:45:16.712Z,94599.78
2018-11-01T06:47:45.009Z,94596.11
2018-11-01T06:50:13.269Z,94593.73
2018-11-01T06:52:41.611Z,94595.03
2018-11-01T06:55:11.309Z,94593.95
2018-11-01T06:57:39.643Z,94593.76
2018-11-01T07:00:11.186Z,94590.89
2018-11-01T07:02:40.457Z,94596.64
2018-11-01T07:05:09.083Z,94602.91
2018-11-01T07:07:39.468Z,94606.04
2018-11-01T07:10:10.459Z,94606.25
2018-11-01T07:12:38.918Z,94601.54
2018-11-01T07:15:08.740Z,94601.67
2018-11-01T07:17:39.046Z,94597.75
2018-11-01T07:20:10.429Z,94595.38
2018-11-01T07:22:40.676Z,94590.26
2018-11-01T07:25:14.395Z,94588.30
2018-11-01T07:27:42.974Z,94581.79
2018-11-01T07:30:13.613Z,94582.30
2018-11-01T07:32:42.314Z,94574.73
2018-11-01T07:35:12.030Z,94571.55
2018-11-01T07:37:41.356Z,94582.76
2018-11-01T07:40:12.674Z,94575.49
2018-11-01T07:42:41.232Z,94571.55
2018-11-01T07:45:11.016Z,94576.31
2018-11-01T07:47:40.752Z,94583.05
2018-11-01T07:50:10.270Z,94583.52
2018-11-01T07:52:39.559Z,94586.31
2018-11-01T07:55:10.560Z,94586.50
2018-11-01T07:57:39.314Z,94580.26
2018-11-01T08:00:10.893Z,94574.82
2018-11-01T08:02:39.183Z,94571.27
2018-11-01T08:05:08.976Z,94580.14
2018-11-01T08:07:37.848Z,94570.05
2018-11-01T08:10:10.820Z,94575.68
2018-11-01T08:12:39.599Z,94579.56
2018-11-01T08:15:11.198Z,94587.33
2018-11-01T08:17:39.956Z,94589.28
2018-11-01T08:20:12.515Z,94591.58
2018-11-01T08:22:41.912Z,94599.38
2018-11-01T08:25:11.533Z,94600.21
2018-11-01T08:27:40.831Z,94605.44
2018-11-01T08:30:11.789Z,94601.62
2018-11-01T08:32:40.202Z,94603.86
2018-11-01T08:35:09.476Z,94602.11
2018-11-01T08:37:38.106Z,94604.45
2018-11-01T08:40:07.685Z,94598.19
2018-11-01T08:42:36.275Z,94593.98
2018-11-01T08:45:05.426Z,94589.37
2018-11-01T08:47:34.037Z,94597.35
2018-11-01T08:50:02.786Z,94591.47
2018-11-01T08:52:31.376Z,94586.94
2018-11-01T08:55:00.450Z,94572.69
2018-11-01T08:57:29.656Z,94571.59
2018-11-01T08:59:58.226Z,94569.63
2018-11-01T09:02:27.734Z,94563.40
2018-11-01T09:04:56.867Z,94553.05
2018-11-01T09:07:25.480Z,94564.17
2018-11-01T09:09:54.108Z,94565.33
2018-11-01T09:12:24.928Z,94563.02
2018-11-01T09:14:53.842Z,94560.91
2018-11-01T09:17:22.353Z,94556.02
2018-11-01T09:19:50.893Z,94558.66
2018-11-01T09:22:19.360Z,94558.52
2018-11-01T09:24:48.101Z,94559.04
2018-11-01T09:27:17.197Z,94560.39
2018-11-01T09:29:45.774Z,94551.50
2018-11-01T09:32:14.299Z,94550.55
2018-11-01T09:34:43.199Z,94547.83
2018-11-01T09:37:11.586Z,94537.94
2018-11-01T09:39:39.865Z,94537.33
2018-11-01T09:42:08.160Z,94543.93
2018-11-01T09:44:36.726Z,94543.36
2018-11-01T09:47:06.165Z,94545.21
2018-11-01T09:49:34.475Z,94540.58
2018-11-01T09:52:02.766Z,94546.80
2018-11-01T09:54:30.935Z,94551.05
2018-11-01T09:56:59.720Z,94541.44
2018-11-01T09:59:28.469Z,94549.85
2018-11-01T10:01:56.900Z,94542.28
2018-11-01T10:04:26.648Z,94527.80
2018-11-01T10:06:55.037Z,94532.79
2018-11-01T10:09:24.315Z,94524.52
2018-11-01T10:11:53.676Z,94520.60
2018-11-01T10:14:22.060Z,94525.44
2018-11-01T10:16:50.577Z,94521.92
2018-11-01T10:19:19.263Z,94524.30
2018-11-01T10:21:47.696Z,94506.81
2018-11-01T10:24:16.323Z,94517.33
2018-11-01T10:26:44.993Z,94517.41
2018-11-01T10:29:14.627Z,94515.03
2018-11-01T10:31:43.679Z,94506.91
2018-11-01T10:34:13.139Z,94511.17
2018-11-01T10:36:41.471Z,94510.23
2018-11-01T10:39:10.571Z,94520.05
2018-11-01T10:41:39.155Z,94513.44
2018-11-01T10:44:07.421Z,94523.22
2018-11-01T10:46:35.652Z,94514.06
2018-11-01T10:49:03.973Z,94505.70
2018-11-01T10:51:32.230Z,94505.65
2018-11-01T10:54:00.632Z,94503.36
2018-11-01T10:56:29.371Z,94499.13
2018-11-01T10:58:57.707Z,94488.06
2018-11-01T11:01:35.053Z,94491.97
2018-11-01T11:04:03.602Z,94486.85
2018-11-01T11:06:32.217Z,94480.14
2018-11-01T11:09:00.513Z,94484.94
2018-11-01T11:11:29.104Z,94473.70
2018-11-01T11:13:57.433Z,94471.09
2018-11-01T11:16:25.614Z,94470.13
2018-11-01T11:18:54.901Z,94461.76
2018-11-01T11:21:23.866Z,94464.30
2018-11-01T11:23:52.844Z,94463.12
2018-11-01T11:26:21.561Z,94456.77
2018-11-01T11:28:49.871Z,94457.88
2018-11-01T11:31:18.187Z,94455.17
2018-11-01T11:33:47.019Z,94447.63
2018-11-01T11:36:15.246Z,94452.02
2018-11-01T11:38:43.423Z,94448.05
2018-11-01T11:41:11.611Z,94444.44
2018-11-01T11:43:40.618Z,94440.47
2018-11-01T11:46:08.836Z,94442.66
2018-11-01T11:48:37.103Z,94440.23
2018-11-01T11:51:05.262Z,94435.54
2018-11-01T11:53:33.815Z,94436.27
2018-11-01T11:56:02.250Z,94435.45
2018-11-01T11:58:31.566Z,94432.84
2018-11-01T12:00:59.871Z,94431.19
2018-11-01T12:03:28.173Z,94432.59
2018-11-01T12:05:56.422Z,94435.05
2018-11-01T12:08:24.841Z,94435.05
2018-11-01T12:10:53.219Z,94430.69
2018-11-01T12:13:21.745Z,94429.15
2018-11-01T12:15:50.622Z,94426.03
2018-11-01T12:18:18.827Z,94425.48
2018-11-01T12:20:47.667Z,94418.20
2018-11-01T12:23:16.518Z,94414.39
2018-11-01T12:25:45.620Z,94411.39
2018-11-01T12:28:13.866Z,94416.77
2018-11-01T12:30:42.065Z,94414.53
2018-11-01T12:33:10.365Z,94407.59
2018-11-01T12:35:39.116Z,94414.99
2018-11-01T12:38:07.620Z,94408.05
2018-11-01T12:40:35.760Z,94410.33
2018-11-01T12:43:03.990Z,94411.61
2018-11-01T12:45:32.042Z,94413.25
2018-11-01T12:48:00.525Z,94416.81
2018-11-01T12:50:28.650Z,94410.97
2018-11-01T12:52:56.946Z,94402.73
2018-11-01T12:55:25.313Z,94407.13
2018-11-01T12:57:54.286Z,94413.19
2018-11-01T13:00:22.439Z,94414.65
2018-11-01T13:02:54.375Z,94408.72
2018-11-01T13:05:23.718Z,94418.62
2018-11-01T13:07:53.383Z,94413.80
2018-11-01T13:10:22.208Z,94412.83
2018-11-01T13:12:50.933Z,94410.51
2018-11-01T13:15:19.828Z,94417.67
2018-11-01T13:17:48.305Z,94418.01
2018-11-01T13:20:16.444Z,94415.49
2018-11-01T13:22:45.313Z,94427.41
2018-11-01T13:25:13.743Z,94425.14
2018-11-01T13:27:41.934Z,94422.14
2018-11-01T13:30:12.496Z,94430.98
2018-11-01T13:32:41.081Z,94430.66
2018-11-01T13:35:09.454Z,94431.67
2018-11-01T13:37:37.789Z,94430.98
2018-11-01T13:40:07.381Z,94438.22
2018-11-01T13:42:35.559Z,94439.22
2018-11-01T13:45:04.525Z,94446.36
2018-11-01T13:47:33.498Z,94447.46
2018-11-01T13:50:01.793Z,94446.48
2018-11-01T13:52:30.041Z,94446.42
2018-11-01T13:54:59.136Z,94439.59
2018-11-01T13:57:27.629Z,94443.09
2018-11-01T13:59:55.934Z,94437.73
2018-11-01T14:02:24.878Z,94438.42
2018-11-01T14:04:53.132Z,94435.27
2018-11-01T14:07:21.334Z,94436.54
2018-11-01T14:09:49.930Z,94438.03
2018-11-01T14:12:18.302Z,94438.50
2018-11-01T14:14:47.346Z,94441.26
2018-11-01T14:17:16.709Z,94437.71
2018-11-01T14:19:45.107Z,94437.13
2018-11-01T14:22:13.386Z,94435.22
2018-11-01T14:24:42.707Z,94426.01
2018-11-01T14:27:11.461Z,94425.55
2018-11-01T14:29:39.756Z,94420.88
2018-11-01T14:32:08.396Z,94415.09
2018-11-01T14:34:36.548Z,94414.66
2018-11-01T14:37:04.921Z,94408.68
2018-11-01T14:39:33.143Z,94397.76
2018-11-01T14:42:01.439Z,94393.67
2018-11-01T14:44:30.073Z,94397.52
2018-11-01T14:46:58.267Z,94396.56
2018-11-01T14:49:26.531Z,94391.08
2018-11-01T14:51:54.931Z,94394.84
2018-11-01T14:54:23.534Z,94394.88
2018-11-01T14:56:52.379Z,94391.62
2018-11-01T14:59:21.078Z,94391.62
2018-11-01T15:01:48.257Z,94391.58
2018-11-01T15:04:16.772Z,94389.50
2018-11-01T15:06:45.124Z,94401.89
2018-11-01T15:09:13.829Z,94400.48
2018-11-01T15:11:42.476Z,94400.34
2018-11-01T15:14:10.638Z,94406.39
2018-11-01T15:16:39.237Z,94413.05
2018-11-01T15:19:08.044Z,94421.08
2018-11-01T15:21:36.180Z,94426.12
2018-11-01T15:24:04.441Z,94428.48
2018-11-01T15:26:32.484Z,94438.89
2018-11-01T15:29:00.884Z,94438.59
2018-11-01T15:31:29.310Z,94440.31
2018-11-01T15:33:57.857Z,94438.41
2018-11-01T15:36:26.195Z,94438.30
2018-11-01T15:38:54.861Z,94438.41
2018-11-01T15:41:23.719Z,94432.17
2018-11-01T15:43:51.878Z,94437.16
2018-11-01T15:46:20.428Z,94431.78
2018-11-01T15:48:48.567Z,94432.14
2018-11-01T15:51:16.919Z,94422.67
2018-11-01T15:53:45.111Z,94422.43
2018-11-01T15:56:13.258Z,94423.63
2018-11-01T15:58:41.634Z,94420.76
2018-11-01T16:01:10.135Z,94433.73
2018-11-01T16:03:38.515Z,94428.60
2018-11-01T16:06:06.939Z,94431.21
2018-11-01T16:08:35.246Z,94426.28
2018-11-01T16:11:03.572Z,94416.27
2018-11-01T16:13:32.181Z,94412.97
2018-11-01T16:16:00.269Z,94408.33
2018-11-01T16:18:28.505Z,94406.80
2018-11-01T16:20:56.719Z,94386.85
2018-11-01T16:23:25.106Z,94381.33
2018-11-01T16:25:53.342Z,94368.80
2018-11-01T16:28:21.734Z,94377.90
2018-11-01T16:30:49.974Z,94372.27
2018-11-01T16:33:20.302Z,94373.45
2018-11-01T16:35:49.727Z,94382.66
2018-11-01T16:38:18.255Z,94395.92
2018-11-01T16:40:46.654Z,94390.66
2018-11-01T16:43:14.893Z,94358.26
2018-11-01T16:45:43.344Z,94363.52
2018-11-01T16:48:11.547Z,94409.23
2018-11-01T16:50:39.882Z,94417.92
2018-11-01T16:53:09.172Z,94431.42
2018-11-01T16:55:37.394Z,94426.75
2018-11-01T16:58:05.828Z,94429.95
2018-11-01T17:00:34.530Z,94428.38
2018-11-01T17:03:02.719Z,94423.00
2018-11-01T17:05:30.965Z,94436.70
2018-11-01T17:07:59.246Z,94437.02
2018-11-01T17:10:27.625Z,94423.97
2018-11-01T17:12:56.230Z,94415.61
2018-11-01T17:15:24.580Z,94427.67
2018-11-01T17:17:52.619Z,94435.69
2018-11-01T17:20:21.687Z,94421.28
2018-11-01T17:22:50.269Z,94427.91
2018-11-01T17:25:18.446Z,94433.55
2018-11-01T17:27:46.649Z,94428.48
2018-11-01T17:30:15.012Z,94426.44
2018-11-01T17:32:48.427Z,94418.96
2018-11-01T17:35:17.055Z,94431.30
2018-11-01T17:37:45.512Z,94429.15
2018-11-01T17:40:13.688Z,94436.82
2018-11-01T17:42:42.309Z,94436.23
2018-11-01T17:45:10.585Z,94437.32
2018-11-01T17:47:39.525Z,94439.13
2018-11-01T17:50:10.102Z,94442.78
2018-11-01T17:52:38.336Z,94441.33
2018-11-01T17:55:06.654Z,94455.81
2018-11-01T17:57:34.865Z,94455.56
2018-11-01T18:00:03.049Z,94464.48
2018-11-01T18:02:31.374Z,94461.49
2018-11-01T18:04:59.461Z,94468.86
2018-11-01T18:07:28.265Z,94469.34
2018-11-01T18:09:56.413Z,94461.83
2018-11-01T18:12:24.598Z,94461.02
2018-11-01T18:14:52.851Z,94450.53
2018-11-01T18:17:21.087Z,94450.11
2018-11-01T18:19:49.394Z,94454.09
2018-11-01T18:22:17.588Z,94453.69
2018-11-01T18:24:45.683Z,94450.98
2018-11-01T18:27:13.847Z,94455.89
2018-11-01T18:29:42.106Z,94458.75
2018-11-01T18:32:10.370Z,94455.79
2018-11-01T18:34:38.622Z,94460.01
2018-11-01T18:37:07.172Z,94456.85
2018-11-01T18:39:35.435Z,94452.66
2018-11-01T18:42:03.781Z,94456.31
2018-11-01T18:44:31.891Z,94452.71
2018-11-01T18:47:00.765Z,94456.16
2018-11-01T18:49:29.080Z,94459.16
2018-11-01T18:51:57.139Z,94457.80
2018-11-01T18:54:25.297Z,94466.68
2018-11-01T18:56:53.443Z,94464.64
2018-11-01T18:59:21.686Z,94453.88
2018-11-01T19:01:49.880Z,94452.05
2018-11-01T19:04:18.136Z,94453.88
2018-11-01T19:06:46.388Z,94453.48
2018-11-01T19:09:14.560Z,94462.77
2018-11-01T19:11:42.674Z,94455.41
2018-11-01T19:14:10.993Z,94451.19
2018-11-01T19:16:39.086Z,94450.55
2018-11-01T19:19:07.270Z,94456.02
2018-11-01T19:21:35.542Z,94452.96
2018-11-01T19:24:03.842Z,94463.08
2018-11-01T19:26:32.051Z,94464.29
2018-11-01T19:29:00.209Z,94463.55
2018-11-01T19:31:28.343Z,94463.41
2018-11-01T19:33:56.557Z,94461.31
2018-11-01T19:36:24.582Z,94460.46
2018-11-01T19:38:52.758Z,94452.77
2018-11-01T19:41:20.929Z,94461.83
2018-11-01T19:43:48.991Z,94463.27
2018-11-01T19:46:17.168Z,94469.59
2018-11-01T19:48:45.330Z,94467.27
2018-11-01T19:51:13.570Z,94463.14
2018-11-01T19:53:41.686Z,94456.73
2018-11-01T19:56:09.983Z,94459.44
2018-11-01T19:58:38.466Z,94459.63
2018-11-01T20:01:06.571Z,94464.14
2018-11-01T20:03:34.757Z,94464.23
2018-11-01T20:06:03.390Z,94459.22
2018-11-01T20:08:32.059Z,94462.02
2018-11-01T20:11:00.340Z,94458.16
2018-11-01T20:13:28.836Z,94466.20
2018-11-01T20:15:57.075Z,94460.40
2018-11-01T20:18:25.465Z,94460.39
2018-11-01T20:20:53.597Z,94450.34
2018-11-01T20:23:21.825Z,94440.44
2018-11-01T20:25:50.123Z,94449.86
2018-11-01T20:28:18.191Z,94455.45
2018-11-01T20:30:46.338Z,94458.64
2018-11-01T20:33:14.415Z,94456.47
2018-11-01T20:35:42.582Z,94449.92
2018-11-01T20:38:10.766Z,94454.91
2018-11-01T20:40:39.093Z,94453.44
2018-11-01T20:43:07.449Z,94453.84
2018-11-01T20:45:35.614Z,94450.20
2018-11-01T20:48:03.735Z,94451.73
2018-11-01T20:50:31.895Z,94458.05
2018-11-01T20:52:59.960Z,94459.39
2018-11-01T20:55:28.304Z,94457.18
2018-11-01T20:57:56.539Z,94459.73
2018-11-01T21:00:25.052Z,94462.07
2018-11-01T21:02:53.192Z,94456.33
2018-11-01T21:05:21.246Z,94458.96
2018-11-01T21:07:49.376Z,94458.14
2018-11-01T21:10:17.490Z,94454.58
2018-11-01T21:12:46.679Z,94449.73
2018-11-01T21:15:15.181Z,94451.70
2018-11-01T21:17:43.367Z,94449.77
2018-11-01T21:20:11.410Z,94449.12
2018-11-01T21:22:39.762Z,94452.49
2018-11-01T21:25:08.751Z,94448.41
2018-11-01T21:27:36.923Z,94450.36
2018-11-01T21:30:05.306Z,94447.68
2018-11-01T21:32:33.385Z,94448.73
2018-11-01T21:35:01.917Z,94445.08
2018-11-01T21:37:29.991Z,94439.84
2018-11-01T21:39:58.104Z,94447.30
2018-11-01T21:42:26.297Z,94448.45
2018-11-01T21:44:54.354Z,94447.09
2018-11-01T21:47:22.499Z,94454.88
2018-11-01T21:49:50.596Z,94454.28
2018-11-01T21:52:18.673Z,94459.63
2018-11-01T21:54:46.970Z,94463.36
2018-11-01T21:57:15.127Z,94462.33
2018-11-01T21:59:43.348Z,94461.59
2018-11-01T22:02:11.429Z,94462.16
2018-11-01T22:04:40.027Z,94470.88
2018-11-01T22:07:08.249Z,94474.89
2018-11-01T22:09:37.499Z,94471.89
2018-11-01T22:12:05.677Z,94473.94
2018-11-01T22:14:33.845Z,94472.94
2018-11-01T22:17:01.943Z,94470.05
2018-11-01T22:19:30.050Z,94465.66
2018-11-01T22:21:58.210Z,94470.91
2018-11-01T22:24:26.384Z,94479.11
2018-11-01T22:26:54.531Z,94476.14
2018-11-01T22:29:22.604Z,94472.87
2018-11-01T22:31:50.874Z,94472.56
2018-11-01T22:34:18.953Z,94479.97
2018-11-01T22:36:47.144Z,94473.61
2018-11-01T22:39:15.321Z,94475.66
2018-11-01T22:41:43.636Z,94470.99
2018-11-01T22:44:11.661Z,94465.29
2018-11-01T22:46:39.837Z,94472.39
2018-11-01T22:49:07.891Z,94466.25
2018-11-01T22:51:36.118Z,94458.38
2018-11-01T22:54:04.503Z,94465.27
2018-11-01T22:56:32.602Z,94469.41
2018-11-01T22:59:00.905Z,94474.81
2018-11-01T23:01:29.147Z,94465.69
2018-11-01T23:03:57.149Z,94461.55
2018-11-01T23:06:25.119Z,94459.13
2018-11-01T23:08:53.111Z,94463.16
2018-11-01T23:11:21.180Z,94467.30
2018-11-01T23:13:49.159Z,94470.16
2018-11-01T23:16:17.085Z,94459.30
2018-11-01T23:18:45.000Z,94458.30
2018-11-01T23:21:13.040Z,94461.11
2018-11-01T23:23:41.022Z,94460.03
2018-11-01T23:26:09.238Z,94460.45
2018-11-01T23:28:37.181Z,94453.73
2018-11-01T23:31:05.146Z,94455.61
2018-11-01T23:33:33.058Z,94454.22
2018-11-01T23:36:03.171Z,94450.78
2018-11-01T23:38:37.022Z,94451.60
2018-11-01T23:41:10.971Z,94448.69
2018-11-01T23:43:44.759Z,94439.41
2018-11-01T23:46:18.228Z,94437.70
2018-11-01T23:48:49.364Z,94445.73
2018-11-01T23:51:18.138Z,94446.13
2018-11-01T23:53:49.215Z,94447.20
2018-11-01T23:56:17.638Z,94450.36
2018-11-01T23:58:45.594Z,94451.70
